Time;durP1;ratioP1;P1;durP2;ratioP2;P2;SDS_P1;SDS_P2;PMS_P1;PMS_P2;Temp;Humidity;BMP_temperature;BMP_pressure;BME280_temperature;BME280_humidity;BME280_pressure;Samples;Min_cycle;Max_cycle;Signal;HPM_P1;HPM_P2
2021/08/01 00:01:24;;;;;;;9.90;5.93;;;;;;;19.18;60.88;98258.22;5033867;28;20022;-50
2021/08/01 00:03:51;;;;;;;13.27;11.80;;;;;;;19.12;61.46;98253.97;5033957;28;20522;-50
2021/08/01 00:06:18;;;;;;;19.50;11.90;;;;;;;19.15;62.03;98251.53;5049051;28;20037;-50
2021/08/01 00:08:44;;;;;;;8.70;4.22;;;;;;;19.38;60.78;98246.75;5033710;28;20057;-50
2021/08/01 00:11:11;;;;;;;17.52;12.38;;;;;;;19.51;60.73;98246.19;5033749;28;20100;-50
2021/08/01 00:13:37;;;;;;;15.68;11.02;;;;;;;19.62;60.63;98241.66;5033704;28;20032;-50
2021/08/01 00:16:02;;;;;;;15.15;13.10;;;;;;;19.82;60.64;98250.66;5048837;28;20448;-50
2021/08/01 00:18:28;;;;;;;8.70;5.80;;;;;;;20.10;59.67;98239.38;5033356;28;20069;-50
2021/08/01 00:20:55;;;;;;;4.53;2.40;;;;;;;20.09;59.13;98243.13;5048872;28;20097;-50
2021/08/01 00:23:20;;;;;;;6.47;2.38;;;;;;;19.94;59.01;98246.66;5033453;28;20021;-50
2021/08/01 00:25:46;;;;;;;11.70;5.82;;;;;;;19.71;58.75;98255.22;5048754;28;20022;-50
2021/08/01 00:28:11;;;;;;;26.33;19.00;;;;;;;19.56;59.10;98259.50;5033413;28;20513;-50
2021/08/01 00:30:37;;;;;;;9.00;5.55;;;;;;;19.40;59.07;98265.91;5048615;28;20163;-50
2021/08/01 00:33:03;;;;;;;8.70;4.60;;;;;;;19.29;59.73;98265.13;5033323;28;20107;-50
2021/08/01 00:35:28;;;;;;;3.90;2.47;;;;;;;19.35;60.04;98261.38;5033236;28;20021;-50
2021/08/01 00:37:54;;;;;;;9.38;3.90;;;;;;;19.32;59.94;98261.94;5033195;28;20527;-51
2021/08/01 00:40:22;;;;;;;10.13;8.50;;;;;;;19.36;60.03;98270.19;5048357;28;20033;-50
2021/08/01 00:42:49;;;;;;;11.32;4.35;;;;;;;19.39;60.10;98266.19;5033178;28;20045;-50
2021/08/01 00:45:15;;;;;;;4.38;1.95;;;;;;;19.44;59.61;98261.66;5032225;28;20025;-50
2021/08/01 00:47:45;;;;;;;7.55;6.22;;;;;;;19.42;59.45;98262.97;5031715;28;20056;-50
2021/08/01 00:50:12;;;;;;;6.47;2.22;;;;;;;19.46;59.33;98266.72;5032940;28;20406;-50
2021/08/01 00:52:39;;;;;;;23.52;21.10;;;;;;;19.51;59.58;98283.44;5032969;28;20040;-50
2021/08/01 00:55:06;;;;;;;5.45;3.15;;;;;;;19.62;58.99;98270.94;5032780;28;20079;-50
2021/08/01 00:57:33;;;;;;;20.35;18.27;;;;;;;19.58;59.66;98283.19;5032899;28;20112;-50
2021/08/01 00:59:59;;;;;;;52.17;46.78;;;;;;;19.75;59.65;98269.59;5032777;28;20109;-50
2021/08/01 01:02:36;;;;;;;10.98;9.40;;;;;;;19.84;59.19;98273.31;5048017;28;20116;-50
2021/08/01 01:05:19;;;;;;;8.85;5.57;;;;;;;19.88;59.25;98276.22;5032633;28;20025;-50
2021/08/01 01:08:04;;;;;;;6.03;2.90;;;;;;;19.93;58.80;98274.34;5032690;28;20503;-50
2021/08/01 01:10:36;;;;;;;;;;;;;;;19.94;59.36;98269.78;5033076;28;20018;-51
2021/08/01 01:13:10;;;;;;;6.65;4.50;;;;;;;20.03;58.86;98270.84;5032822;28;19909;-51
2021/08/01 01:15:44;;;;;;;12.75;8.52;;;;;;;20.18;58.40;98269.97;5032535;28;20446;-50
2021/08/01 01:18:18;;;;;;;12.40;8.67;;;;;;;20.30;58.08;98264.31;5030921;28;20135;-50
2021/08/01 01:21:21;;;;;;;12.35;7.35;;;;;;;20.30;58.12;98257.16;5032484;28;20064;-50
2021/08/01 01:23:57;;;;;;;8.98;2.65;;;;;;;20.25;57.94;98259.03;5047719;28;20037;-51
2021/08/01 01:26:43;;;;;;;16.33;11.98;;;;;;;20.15;58.36;98250.00;5032367;28;20032;-51
2021/08/01 01:29:12;;;;;;;10.70;7.65;;;;;;;20.12;58.83;98249.75;5032315;28;20380;-50
2021/08/01 01:31:49;;;;;;;8.82;4.45;;;;;;;20.14;58.89;98255.59;5030905;28;20499;-50
2021/08/01 01:34:37;;;;;;;306.17;255.02;;;;;;;20.21;59.00;98252.66;5047395;28;20026;-50
2021/08/01 01:37:05;;;;;;;13.27;8.52;;;;;;;20.15;58.54;98249.22;5032159;28;20518;-50
2021/08/01 01:39:32;;;;;;;9.25;5.60;;;;;;;19.88;58.91;98244.25;5047407;28;20120;-51
2021/08/01 01:42:01;;;;;;;7.63;2.40;;;;;;;19.48;59.66;98248.63;5032051;28;20033;-50
2021/08/01 01:44:29;;;;;;;20.63;15.25;;;;;;;19.22;60.95;98253.16;5032056;28;20500;-51
2021/08/01 01:46:56;;;;;;;19.77;16.23;;;;;;;19.32;61.42;98248.63;5031962;28;20061;-50
2021/08/01 01:49:23;;;;;;;53.42;48.55;;;;;;;19.55;60.88;98247.25;5031972;28;20022;-50
2021/08/01 01:51:49;;;;;;;6.68;3.55;;;;;;;19.64;60.10;98242.19;5031930;28;20025;-50
2021/08/01 01:54:16;;;;;;;11.95;6.03;;;;;;;19.52;60.62;98241.69;5030525;28;20022;-50
2021/08/01 01:56:44;;;;;;;9.63;3.00;;;;;;;19.47;61.03;98237.16;5031761;28;20033;-50
2021/08/01 01:59:12;;;;;;;15.07;12.27;;;;;;;19.67;60.83;98236.31;5031834;28;20099;-51
2021/08/01 02:01:38;;;;;;;14.95;11.20;;;;;;;19.86;60.20;98235.75;5031826;28;20105;-51
2021/08/01 02:04:05;;;;;;;19.25;13.75;;;;;;;20.00;60.06;98234.13;5031818;28;20068;-50
2021/08/01 02:06:32;;;;;;;29.50;26.65;;;;;;;20.27;59.51;98232.91;5031750;28;20030;-50
2021/08/01 02:09:03;;;;;;;9.10;5.97;;;;;;;20.45;58.53;98234.16;5031764;28;20021;-50
2021/08/01 02:12:11;;;;;;;24.52;19.15;;;;;;;20.43;58.24;98229.09;5031811;28;20029;-50
2021/08/01 02:15:01;;;;;;;4.93;2.25;;;;;;;20.35;58.19;98225.13;5003407;28;20037;-50
2021/08/01 02:17:34;;;;;;;13.05;11.73;;;;;;;20.27;58.22;98219.59;5031833;28;20030;-50
2021/08/01 02:20:02;;;;;;;22.35;10.63;;;;;;;20.07;58.58;98210.63;5031481;28;20507;-51
2021/08/01 02:22:29;;;;;;;30.27;27.30;;;;;;;19.95;58.69;98210.16;5031714;28;20123;-50
2021/08/01 02:24:56;;;;;;;8.38;3.10;;;;;;;19.69;59.07;98212.88;5031697;28;20025;-50
2021/08/01 02:27:23;;;;;;;8.73;4.40;;;;;;;19.49;59.86;98212.94;5031551;28;20018;-50
2021/08/01 02:29:50;;;;;;;14.93;10.02;;;;;;;19.61;60.23;98204.66;5030265;28;20032;-50
2021/08/01 02:32:18;;;;;;;10.00;6.70;;;;;;;19.82;59.67;98197.41;5030291;28;20029;-50
2021/08/01 02:34:44;;;;;;;14.45;6.25;;;;;;;19.97;58.92;98196.56;5031505;28;20030;-50
2021/08/01 02:37:13;;;;;;;10.75;3.80;;;;;;;20.01;58.70;98192.28;5031480;28;20029;-50
2021/08/01 02:39:40;;;;;;;20.10;17.55;;;;;;;20.02;58.74;98188.53;5031487;28;20021;-50
2021/08/01 02:42:09;;;;;;;10.18;5.40;;;;;;;20.05;58.63;98193.31;5031402;28;20135;-50
2021/08/01 02:44:38;;;;;;;55.38;48.85;;;;;;;20.00;58.58;98182.69;5046727;28;20458;-50
2021/08/01 02:47:10;;;;;;;9.38;3.55;;;;;;;19.91;58.63;98191.25;5046664;28;20026;-50
2021/08/01 02:49:46;;;;;;;6.60;3.55;;;;;;;19.80;59.03;98188.91;5031474;28;20079;-50
2021/08/01 02:52:15;;;;;;;7.97;3.38;;;;;;;19.69;59.15;98199.56;5031411;28;20034;-50
2021/08/01 02:54:43;;;;;;;11.10;7.10;;;;;;;19.60;59.29;98190.56;5031534;28;20025;-50
2021/08/01 02:57:12;;;;;;;95.35;86.90;;;;;;;19.56;59.54;98192.16;5030043;28;20238;-50
2021/08/01 02:59:39;;;;;;;5.40;2.58;;;;;;;19.45;59.61;98190.59;5031285;28;20025;-50
2021/08/01 03:02:08;;;;;;;8.45;6.38;;;;;;;19.24;60.50;98193.28;5031268;28;20048;-50
2021/08/01 03:04:39;;;;;;;14.45;12.32;;;;;;;19.28;60.77;98193.56;5031284;28;20028;-50
2021/08/01 03:07:11;;;;;;;9.13;5.82;;;;;;;19.44;60.38;98195.13;5031506;28;20033;-50
2021/08/01 03:09:37;;;;;;;43.88;39.38;;;;;;;19.49;60.03;98191.63;5034434;28;20080;-50
2021/08/01 03:12:13;;;;;;;21.48;18.83;;;;;;;19.51;60.15;98195.63;5034848;28;20026;-50
2021/08/01 03:14:40;;;;;;;9.35;5.80;;;;;;;19.56;60.27;98200.16;5034748;28;20541;-50
2021/08/01 03:17:06;;;;;;;17.02;15.18;;;;;;;19.68;59.97;98195.31;5034741;28;20112;-50
2021/08/01 03:19:39;;;;;;;14.60;8.77;;;;;;;19.70;59.77;98201.16;5034435;28;20519;-50
2021/08/01 03:22:05;;;;;;;11.95;10.75;;;;;;;19.79;59.69;98201.41;5049789;28;20029;-50
2021/08/01 03:24:32;;;;;;;16.33;12.65;;;;;;;19.79;59.63;98203.28;5034651;28;20796;-50
2021/08/01 03:26:57;;;;;;;6.55;3.75;;;;;;;19.69;59.76;98198.78;5049851;28;20028;-50
2021/08/01 03:29:23;;;;;;;14.63;13.07;;;;;;;19.54;59.93;98204.94;5034535;28;20026;-50
2021/08/01 03:31:49;;;;;;;14.68;7.90;;;;;;;19.44;60.64;98200.44;5034413;28;20022;-50
2021/08/01 03:34:14;;;;;;;5.15;2.50;;;;;;;19.49;60.08;98202.28;5034399;28;20539;-50
2021/08/01 03:36:40;;;;;;;8.60;3.88;;;;;;;19.00;60.87;98216.22;5034338;28;20021;-50
2021/08/01 03:39:06;;;;;;;9.50;4.10;;;;;;;18.76;62.34;98206.06;5034301;28;20028;-50
2021/08/01 03:41:32;;;;;;;14.57;6.78;;;;;;;18.99;62.15;98207.41;5034278;28;20518;-50
2021/08/01 03:43:58;;;;;;;12.32;8.93;;;;;;;19.23;61.32;98206.88;5034234;28;20025;-50
2021/08/01 03:46:23;;;;;;;24.02;18.65;;;;;;;19.34;60.84;98208.44;5034190;28;20025;-50
2021/08/01 03:48:49;;;;;;;15.68;13.57;;;;;;;19.44;60.67;98197.78;5049497;28;20492;-50
2021/08/01 03:51:15;;;;;;;13.25;6.10;;;;;;;19.56;60.12;98202.81;5034159;28;20388;-50
2021/08/01 03:53:41;;;;;;;8.05;3.20;;;;;;;19.48;60.07;98198.84;5034110;28;20262;-50
2021/08/01 03:56:07;;;;;;;7.28;5.25;;;;;;;19.34;60.87;98203.91;5049179;28;20029;-50
2021/08/01 03:58:33;;;;;;;15.85;11.60;;;;;;;19.44;61.02;98208.44;5034031;28;20026;-50
2021/08/01 04:00:59;;;;;;;13.05;9.20;;;;;;;19.66;60.14;98209.94;5032615;28;20026;-50
2021/08/01 04:03:25;;;;;;;9.38;5.15;;;;;;;19.35;60.06;98213.47;5032595;28;20133;-50
2021/08/01 04:05:50;;;;;;;9.48;3.03;;;;;;;19.05;61.12;98213.53;5033764;28;20048;-50
2021/08/01 04:08:16;;;;;;;6.53;2.72;;;;;;;19.14;61.03;98215.38;5033840;28;20032;-50
2021/08/01 04:10:42;;;;;;;10.90;4.40;;;;;;;19.32;61.23;98227.34;5033762;28;20033;-50
2021/08/01 04:13:08;;;;;;;26.90;23.42;;;;;;;19.66;60.93;98215.28;5033741;28;20033;-50
2021/08/01 04:15:34;;;;;;;20.90;18.80;;;;;;;19.95;59.98;98218.13;5048928;28;20503;-50
2021/08/01 04:18:05;;;;;;;9.40;4.35;;;;;;;20.15;59.05;98219.91;5033412;28;20025;-52
2021/08/01 04:20:33;;;;;;;7.28;3.38;;;;;;;20.24;58.83;98218.28;5032477;28;20247;-50
2021/08/01 04:22:58;;;;;;;8.95;4.47;;;;;;;20.46;58.38;98217.06;5033576;28;20048;-50
2021/08/01 04:25:24;;;;;;;37.45;33.92;;;;;;;20.67;57.96;98223.09;5033442;28;20025;-50
2021/08/01 04:27:50;;;;;;;8.90;4.53;;;;;;;20.72;57.48;98225.72;5033465;28;20064;-50
2021/08/01 04:30:15;;;;;;;11.95;5.18;;;;;;;20.67;58.02;98223.91;5033390;28;20104;-50
2021/08/01 04:32:41;;;;;;;4.97;3.63;;;;;;;20.64;58.17;98228.97;5033331;28;20104;-50
2021/08/01 04:35:07;;;;;;;18.40;14.82;;;;;;;20.66;58.40;98226.84;5048530;28;20032;-50
2021/08/01 04:37:33;;;;;;;7.32;3.05;;;;;;;20.49;57.98;98225.31;5033277;28;20026;-50
2021/08/01 04:39:59;;;;;;;7.30;5.47;;;;;;;20.06;58.91;98229.53;5033101;28;20035;-50
2021/08/01 04:42:24;;;;;;;15.35;12.65;;;;;;;20.14;59.79;98229.78;5033156;28;20093;-50
2021/08/01 04:44:50;;;;;;;9.40;2.80;;;;;;;20.44;58.51;98235.22;5033101;28;20047;-50
2021/08/01 04:47:16;;;;;;;11.05;4.25;;;;;;;20.04;58.90;98237.81;5032989;28;20024;-50
2021/08/01 04:49:42;;;;;;;31.27;27.90;;;;;;;19.87;60.31;98240.00;5032973;28;20052;-50
2021/08/01 04:52:15;;;;;;;12.23;7.85;;;;;;;20.04;60.13;98240.50;5032975;28;20097;-50
2021/08/01 04:54:40;;;;;;;18.85;11.18;;;;;;;20.21;59.72;98242.00;5033430;28;20030;-51
2021/08/01 04:57:06;;;;;;;7.70;4.60;;;;;;;20.33;59.49;98245.94;5032883;28;20099;-50
2021/08/01 04:59:34;;;;;;;12.55;8.95;;;;;;;20.57;59.06;98250.59;5032878;28;20025;-50
2021/08/01 05:02:01;;;;;;;30.95;27.80;;;;;;;20.66;58.42;98253.50;5048050;28;20112;-51
2021/08/01 05:04:28;;;;;;;7.50;3.70;;;;;;;20.61;58.24;98250.88;5032759;28;20087;-50
2021/08/01 05:06:54;;;;;;;43.78;39.72;;;;;;;20.51;58.44;98251.69;5032670;28;20025;-51
2021/08/01 05:09:20;;;;;;;14.30;9.57;;;;;;;20.51;58.73;98247.16;5032641;28;20372;-50
2021/08/01 05:11:46;;;;;;;42.60;38.40;;;;;;;20.64;58.48;98247.66;5047842;28;20048;-50
2021/08/01 05:14:12;;;;;;;11.60;7.65;;;;;;;20.51;58.16;98249.81;5032509;28;20029;-50
2021/08/01 05:16:37;;;;;;;9.90;4.85;;;;;;;20.12;59.42;98245.25;5032433;28;20026;-51
2021/08/01 05:19:03;;;;;;;36.60;32.72;;;;;;;20.19;59.67;98244.94;5031941;28;20108;-50
2021/08/01 05:21:30;;;;;;;9.23;4.88;;;;;;;20.29;59.32;98249.44;5032430;28;20025;-50
2021/08/01 05:23:56;;;;;;;8.95;4.07;;;;;;;20.30;59.13;98257.16;5032388;28;20434;-51
2021/08/01 05:26:21;;;;;;;49.78;36.60;;;;;;;20.39;59.95;98244.03;5032383;28;20116;-51
2021/08/01 05:28:47;;;;;;;11.40;4.30;;;;;;;20.61;59.26;98264.22;5032330;28;20036;-51
2021/08/01 05:31:13;;;;;;;11.95;6.68;;;;;;;20.73;59.11;98254.78;5047112;28;20029;-51
2021/08/01 05:33:38;;;;;;;9.93;6.28;;;;;;;20.89;58.99;98268.81;5030886;28;20431;-50
2021/08/01 05:36:06;;;;;;;26.33;22.08;;;;;;;20.99;58.37;98264.47;5032128;28;20026;-51
2021/08/01 05:38:31;;;;;;;26.20;23.67;;;;;;;20.99;58.44;98269.78;5032165;28;20026;-51
2021/08/01 05:40:58;;;;;;;85.88;78.13;;;;;;;21.07;58.36;98269.22;5032119;28;20104;-50
2021/08/01 05:43:23;;;;;;;14.35;10.02;;;;;;;21.15;57.80;98272.09;5032101;28;20018;-50
2021/08/01 05:45:49;;;;;;;8.63;5.00;;;;;;;20.85;57.76;98275.78;5031974;28;20033;-50
2021/08/01 05:48:15;;;;;;;10.77;5.50;;;;;;;20.46;58.59;98278.38;5032013;28;20399;-50
2021/08/01 05:50:41;;;;;;;14.63;8.98;;;;;;;20.07;59.75;98277.22;5031948;28;20517;-50
2021/08/01 05:53:06;;;;;;;8.35;4.32;;;;;;;19.87;60.06;98278.09;5031961;28;20053;-50
2021/08/01 05:55:32;;;;;;;10.52;5.38;;;;;;;19.69;60.88;98281.31;5031848;28;20472;-50
2021/08/01 05:57:58;;;;;;;18.02;16.25;;;;;;;19.65;61.24;98278.38;5030552;28;20488;-50
2021/08/01 06:00:23;;;;;;;9.40;4.75;;;;;;;19.70;61.42;98281.03;5047188;28;20022;-50
2021/08/01 06:02:49;;;;;;;8.00;3.97;;;;;;;19.78;61.28;98277.06;5031861;28;20036;-50
2021/08/01 06:05:15;;;;;;;23.67;16.08;;;;;;;19.79;61.16;98283.19;5047092;28;20403;-50
2021/08/01 06:07:40;;;;;;;69.60;58.28;;;;;;;19.89;60.93;98283.16;5031797;28;20509;-50
2021/08/01 06:10:06;;;;;;;19.83;16.40;;;;;;;19.96;60.74;98286.34;5031825;28;20470;-50
2021/08/01 06:12:32;;;;;;;42.33;31.42;;;;;;;19.97;60.82;98277.25;5031701;28;20036;-50
2021/08/01 06:14:58;;;;;;;19.83;15.35;;;;;;;20.08;60.64;98278.00;5031717;28;20053;-50
2021/08/01 06:17:24;;;;;;;8.15;4.15;;;;;;;20.12;60.23;98276.41;5046979;28;20081;-50
2021/08/01 06:19:54;;;;;;;5.45;3.90;;;;;;;20.12;60.44;98281.72;5031426;28;20068;-50
2021/08/01 06:22:22;;;;;;;10.15;6.20;;;;;;;20.09;60.33;98276.94;5031670;28;20025;-50
2021/08/01 06:24:48;;;;;;;8.85;4.22;;;;;;;19.86;60.72;98281.84;5031594;28;20075;-50
2021/08/01 06:27:13;;;;;;;9.18;4.38;;;;;;;19.80;60.87;98284.75;5031590;28;20025;-50
2021/08/01 06:29:39;;;;;;;9.07;4.40;;;;;;;19.79;60.81;98285.84;5031575;28;20026;-50
2021/08/01 06:32:05;;;;;;;8.93;5.13;;;;;;;19.74;61.03;98282.13;5031576;28;20021;-50
2021/08/01 06:34:31;;;;;;;8.80;5.03;;;;;;;20.03;60.65;98281.50;5046758;28;20033;-50
2021/08/01 06:36:56;;;;;;;11.43;4.43;;;;;;;20.50;59.48;98279.41;5031536;28;20104;-50
2021/08/01 06:39:22;;;;;;;12.40;6.68;;;;;;;21.02;58.84;98277.25;5031528;28;20021;-51
2021/08/01 06:41:48;;;;;;;15.43;6.28;;;;;;;21.58;56.49;98284.03;5046695;28;20459;-50
2021/08/01 06:44:13;;;;;;;8.98;4.80;;;;;;;22.26;54.70;98283.81;5034182;28;20048;-50
2021/08/01 06:46:39;;;;;;;8.20;3.70;;;;;;;23.50;51.87;98278.25;5035352;28;20491;-50
2021/08/01 06:49:08;;;;;;;8.57;6.00;;;;;;;26.10;46.38;98277.22;5035312;28;20480;-50
2021/08/01 06:51:34;;;;;;;10.52;5.35;;;;;;;28.20;41.09;98277.75;5050545;28;20116;-50
2021/08/01 06:53:59;;;;;;;9.43;4.07;;;;;;;28.96;39.56;98282.13;5035196;28;20104;-51
2021/08/01 06:56:25;;;;;;;9.85;3.90;;;;;;;30.29;36.25;98281.09;5035100;28;20049;-51
2021/08/01 06:58:50;;;;;;;6.47;5.38;;;;;;;31.28;34.07;98275.38;5035154;28;20021;-51
2021/08/01 07:01:16;;;;;;;8.35;3.38;;;;;;;31.60;33.08;98266.16;5035062;28;20032;-51
2021/08/01 07:03:42;;;;;;;9.30;3.75;;;;;;;31.96;32.81;98269.72;5035025;28;20515;-51
2021/08/01 07:06:10;;;;;;;14.18;5.00;;;;;;;32.35;32.12;98267.09;5035011;28;20100;-51
2021/08/01 07:08:37;;;;;;;12.00;7.03;;;;;;;31.33;32.58;98275.91;5034904;28;20061;-51
2021/08/01 07:11:03;;;;;;;5.13;2.95;;;;;;;29.84;34.79;98280.13;5034941;28;20022;-51
2021/08/01 07:13:29;;;;;;;6.20;3.45;;;;;;;28.36;37.40;98281.44;5033628;28;20116;-51
2021/08/01 07:16:05;;;;;;;9.35;7.45;;;;;;;26.93;40.12;98292.53;5034771;28;20017;-51
2021/08/01 07:18:31;;;;;;;7.93;3.75;;;;;;;26.37;41.60;98286.94;5034463;28;20120;-51
2021/08/01 07:20:58;;;;;;;14.85;11.02;;;;;;;26.16;42.43;98294.81;5034668;28;20026;-51
2021/08/01 07:23:23;;;;;;;10.63;4.13;;;;;;;26.08;42.12;98290.19;5034712;28;20052;-51
2021/08/01 07:25:49;;;;;;;7.00;3.15;;;;;;;25.61;43.59;98287.91;5034605;28;20057;-51
2021/08/01 07:28:15;;;;;;;9.45;3.40;;;;;;;25.11;44.46;98294.25;5034564;28;20403;-50
2021/08/01 07:30:40;;;;;;;10.52;3.80;;;;;;;24.70;44.80;98292.50;5034536;28;20490;-50
2021/08/01 07:33:06;;;;;;;7.05;3.00;;;;;;;24.53;45.29;98300.41;5049813;28;20044;-51
2021/08/01 07:35:32;;;;;;;6.93;3.58;;;;;;;24.46;45.21;98295.41;5034386;28;20021;-50
2021/08/01 07:37:58;;;;;;;6.80;3.78;;;;;;;24.74;45.06;98292.69;5034462;28;20025;-51
2021/08/01 07:40:23;;;;;;;5.55;2.30;;;;;;;25.13;43.80;98293.94;5034253;28;20380;-51
2021/08/01 07:42:49;;;;;;;4.13;2.50;;;;;;;25.09;43.54;98291.09;5034352;28;20430;-51
2021/08/01 07:45:25;;;;;;;6.93;2.60;;;;;;;25.69;42.25;98295.22;5034247;28;20440;-51
2021/08/01 07:47:51;;;;;;;4.32;2.20;;;;;;;26.84;40.63;98297.13;5034259;28;20028;-50
2021/08/01 07:50:17;;;;;;;4.35;2.50;;;;;;;27.13;39.68;98295.69;5034180;28;20021;-50
2021/08/01 07:52:43;;;;;;;7.72;2.20;;;;;;;27.05;39.59;98292.69;5034121;28;20033;-51
2021/08/01 07:55:09;;;;;;;11.48;6.75;;;;;;;27.20;38.44;98301.38;5033754;28;20018;-51
2021/08/01 07:57:35;;;;;;;11.10;2.88;;;;;;;26.48;40.59;98306.25;5034054;28;20022;-51
2021/08/01 08:00:04;;;;;;;14.85;11.38;;;;;;;25.83;42.10;98302.41;5034062;28;20036;-51
2021/08/01 08:02:30;;;;;;;4.90;3.15;;;;;;;25.58;42.67;98312.72;5033937;28;20407;-50
2021/08/01 08:04:55;;;;;;;7.38;4.20;;;;;;;25.96;42.30;98304.25;5033874;28;20025;-51
2021/08/01 08:07:21;;;;;;;6.53;2.70;;;;;;;26.77;40.94;98300.28;5033917;28;20117;-52
2021/08/01 08:09:49;;;;;;;13.45;6.47;;;;;;;26.75;40.86;98297.13;5034110;28;20029;-51
2021/08/01 08:12:15;;;;;;;7.80;3.42;;;;;;;26.45;41.52;98299.59;5033719;28;20021;-51
2021/08/01 08:14:41;;;;;;;8.82;2.88;;;;;;;26.26;41.91;98312.56;5032342;28;20032;-51
2021/08/01 08:17:10;;;;;;;9.88;5.43;;;;;;;26.35;41.38;98315.25;5033675;28;20045;-51
2021/08/01 08:19:38;;;;;;;4.85;3.05;;;;;;;26.93;40.40;98314.06;5033448;28;20527;-51
2021/08/01 08:22:04;;;;;;;8.40;3.38;;;;;;;26.78;40.43;98317.22;5033558;28;20025;-51
2021/08/01 08:24:30;;;;;;;6.65;3.00;;;;;;;26.21;39.94;98318.84;5033529;28;20025;-51
2021/08/01 08:26:56;;;;;;;4.13;2.42;;;;;;;25.65;40.80;98313.06;5048800;28;20446;-51
2021/08/01 08:29:25;;;;;;;3.97;2.58;;;;;;;25.45;41.16;98322.44;5033463;28;20042;-51
2021/08/01 08:31:53;;;;;;;5.55;3.45;;;;;;;26.03;41.11;98314.53;5033439;28;20087;-50
2021/08/01 08:34:20;;;;;;;7.20;2.05;;;;;;;27.52;38.70;98315.44;5048502;28;20025;-51
2021/08/01 08:36:50;;;;;;;7.75;2.60;;;;;;;27.84;37.91;98309.47;5033270;28;20018;-51
2021/08/01 08:39:22;;;;;;;5.70;2.03;;;;;;;28.26;36.33;98315.00;5033241;28;20022;-51
2021/08/01 08:41:50;;;;;;;6.47;2.10;;;;;;;28.35;35.92;98314.94;5033176;28;20032;-51
2021/08/01 08:44:16;;;;;;;7.70;3.45;;;;;;;28.29;35.41;98322.47;5033187;28;20021;-51
2021/08/01 08:46:42;;;;;;;5.93;2.58;;;;;;;28.28;35.64;98331.66;5033073;28;20080;-51
2021/08/01 08:49:13;;;;;;;4.93;3.28;;;;;;;28.67;34.96;98318.09;5033116;28;20026;-51
2021/08/01 08:51:42;;;;;;;4.90;2.25;;;;;;;29.30;34.74;98322.69;5032982;28;20082;-51
2021/08/01 08:54:31;;;;;;;7.82;2.13;;;;;;;30.05;33.92;98317.88;5032976;28;20083;-51
2021/08/01 08:56:59;;;;;;;5.53;2.40;;;;;;;30.85;32.00;98329.19;5031685;28;20036;-51
2021/08/01 08:59:26;;;;;;;5.25;2.72;;;;;;;32.61;29.61;98318.13;5032883;28;20052;-52
2021/08/01 09:01:52;;;;;;;8.90;2.60;;;;;;;34.69;27.15;98312.78;5048121;28;20119;-51
2021/08/01 09:04:18;;;;;;;6.10;2.63;;;;;;;36.04;25.73;98316.47;5032758;28;20159;-49
2021/08/01 09:06:45;;;;;;;2.65;1.60;;;;;;;36.82;23.87;98315.38;5032031;28;20022;-49
2021/08/01 09:09:13;;;;;;;6.25;2.90;;;;;;;37.16;23.54;98318.63;5032750;28;20056;-52
2021/08/01 09:11:40;;;;;;;3.00;1.85;;;;;;;36.13;23.98;98325.91;5032609;28;20096;-52
2021/08/01 09:14:17;;;;;;;6.45;2.28;;;;;;;34.73;25.68;98324.53;5032600;28;20139;-52
2021/08/01 09:16:46;;;;;;;50.08;45.20;;;;;;;33.75;26.45;98329.66;5032508;28;20053;-49
2021/08/01 09:19:39;;;;;;;7.55;3.83;;;;;;;33.73;27.56;98329.22;5032310;28;20053;-49
2021/08/01 09:22:19;;;;;;;6.07;2.10;;;;;;;35.52;26.19;98319.94;5032453;28;20033;-49
2021/08/01 09:24:48;;;;;;;3.28;1.85;;;;;;;35.05;25.18;98326.03;5032398;28;20057;-49
2021/08/01 09:27:33;;;;;;;6.85;2.25;;;;;;;33.01;27.70;98330.59;5032347;28;20032;-49
2021/08/01 09:30:00;;;;;;;7.90;2.10;;;;;;;31.65;29.64;98332.91;5032382;28;20116;-52
2021/08/01 09:32:30;;;;;;;8.07;3.00;;;;;;;30.67;31.05;98334.09;5032291;28;20074;-51
2021/08/01 09:34:55;;;;;;;6.32;2.45;;;;;;;30.14;32.24;98331.28;5047449;28;20025;-50
2021/08/01 09:37:35;;;;;;;3.97;1.70;;;;;;;29.53;33.20;98336.63;5032135;28;20052;-51
2021/08/01 09:40:12;;;;;;;4.80;2.00;;;;;;;29.00;34.28;98336.28;5032154;28;20410;-51
2021/08/01 09:42:46;;;;;;;6.68;1.73;;;;;;;28.71;34.77;98337.16;5032116;28;20024;-52
2021/08/01 09:45:18;;;;;;;8.10;2.15;;;;;;;28.61;34.57;98341.81;5032115;28;20037;-51
2021/08/01 09:47:48;;;;;;;8.20;2.08;;;;;;;28.19;35.05;98330.13;5032033;28;20032;-51
2021/08/01 09:50:16;;;;;;;4.40;1.98;;;;;;;27.68;35.56;98338.84;5030766;28;20033;-51
2021/08/01 09:52:43;;;;;;;8.20;4.47;;;;;;;27.24;36.35;98345.47;5047177;28;20150;-51
2021/08/01 09:55:19;;;;;;;3.38;1.90;;;;;;;26.84;37.21;98337.50;5031924;28;20353;-51
2021/08/01 09:57:53;;;;;;;5.82;1.50;;;;;;;27.22;36.92;98348.44;5032011;28;20447;-51
2021/08/01 10:00:19;;;;;;;8.43;1.90;;;;;;;28.73;34.71;98338.38;5031846;28;20029;-51
2021/08/01 10:02:45;;;;;;;3.85;1.55;;;;;;;29.79;32.28;98333.66;5031912;28;20018;-51
2021/08/01 10:05:14;;;;;;;10.65;1.98;;;;;;;29.49;32.78;98328.38;5031797;28;20509;-51
2021/08/01 10:07:44;;;;;;;5.43;3.00;;;;;;;29.15;33.59;98334.91;5032103;28;20100;-51
2021/08/01 10:10:22;;;;;;;8.13;2.13;;;;;;;28.82;34.66;98324.84;5031778;28;20071;-51
2021/08/01 10:12:52;;;;;;;6.47;2.38;;;;;;;28.92;34.47;98334.47;5031753;28;20047;-51
2021/08/01 10:15:18;;;;;;;9.90;5.72;;;;;;;29.54;32.75;98328.19;5030291;28;20025;-51
2021/08/01 10:17:43;;;;;;;4.53;1.60;;;;;;;30.39;31.81;98323.19;5032437;28;20136;-51
2021/08/01 10:20:10;;;;;;;4.38;1.92;;;;;;;31.19;31.00;98327.03;5050895;28;20050;-51
2021/08/01 10:22:38;;;;;;;2.28;1.55;;;;;;;30.58;29.72;98315.25;5035815;28;20014;-51
2021/08/01 10:25:10;;;;;;;5.05;2.20;;;;;;;29.46;31.24;98332.53;5034442;28;20445;-51
2021/08/01 10:27:44;;;;;;;4.32;1.63;;;;;;;28.69;33.17;98337.47;5033994;28;20059;-51
2021/08/01 10:30:17;;;;;;;9.73;1.58;;;;;;;28.51;33.67;98328.69;5035747;28;20025;-51
2021/08/01 10:32:45;;;;;;;3.90;2.10;;;;;;;29.02;33.44;98325.94;5035691;28;20108;-51
2021/08/01 10:35:15;;;;;;;5.57;1.77;;;;;;;29.46;33.19;98313.63;5034184;28;20032;-51
2021/08/01 10:37:44;;;;;;;3.30;1.80;;;;;;;29.94;32.33;98316.75;5050931;28;20053;-51
2021/08/01 10:40:14;;;;;;;10.20;5.15;;;;;;;30.44;31.66;98309.41;5035792;28;20021;-51
2021/08/01 10:42:43;;;;;;;3.25;1.80;;;;;;;30.19;31.36;98308.63;5035401;28;20341;-51
2021/08/01 10:45:10;;;;;;;3.38;1.40;;;;;;;30.73;30.95;98311.03;5035398;28;20064;-51
2021/08/01 10:47:37;;;;;;;2.45;1.52;;;;;;;30.88;30.66;98306.03;5035349;28;20414;-51
2021/08/01 10:50:07;;;;;;;2.50;1.40;;;;;;;30.06;30.03;98310.53;5035308;28;20483;-51
2021/08/01 10:52:35;;;;;;;4.55;1.48;;;;;;;29.92;31.12;98308.16;5035245;28;20014;-51
2021/08/01 10:55:04;;;;;;;5.53;1.60;;;;;;;31.06;29.74;98297.28;5035153;28;20083;-52
2021/08/01 10:57:31;;;;;;;4.95;2.45;;;;;;;32.29;28.00;98308.47;5035161;28;20561;-51
2021/08/01 11:00:03;;;;;;;8.13;1.40;;;;;;;33.63;25.88;98297.97;5035178;28;20419;-52
2021/08/01 11:02:31;;;;;;;3.05;1.75;;;;;;;34.72;24.60;98300.34;5035178;28;20033;-49
2021/08/01 11:04:57;;;;;;;5.80;1.77;;;;;;;35.42;24.14;98293.34;5035056;28;20029;-49
2021/08/01 11:07:26;;;;;;;5.80;1.33;;;;;;;34.72;25.07;98292.16;5035015;28;20029;-50
2021/08/01 11:10:23;;;;;;;4.60;1.83;;;;;;;33.74;25.82;98305.53;5034930;28;20022;-51
2021/08/01 11:12:49;;;;;;;4.95;1.60;;;;;;;33.01;27.38;98302.63;5021805;28;20029;-51
2021/08/01 11:15:16;;;;;;;5.07;1.58;;;;;;;32.17;28.79;98309.38;5034775;28;20135;-51
2021/08/01 11:17:49;;;;;;;4.43;2.13;;;;;;;31.08;30.63;98317.84;5050205;28;20374;-51
2021/08/01 11:20:23;;;;;;;8.25;3.78;;;;;;;29.67;33.12;98320.88;5034582;28;20053;-51
2021/08/01 11:22:52;;;;;;;;;;;;;;;28.59;34.34;98305.47;5035246;28;20036;-51
2021/08/01 11:25:28;;;;;;;4.40;2.70;;;;;;;27.98;35.76;98325.47;5049999;28;19913;-51
2021/08/01 11:28:12;;;;;;;3.25;2.03;;;;;;;27.74;36.16;98323.31;5034668;28;20574;-51
2021/08/01 11:31:33;;;;;;;4.20;2.80;;;;;;;27.37;36.36;98328.31;5034083;28;20049;-51
2021/08/01 11:34:20;;;;;;;3.72;1.60;;;;;;;27.41;36.35;98336.56;5049744;28;20033;-51
2021/08/01 11:36:46;;;;;;;3.63;1.63;;;;;;;27.37;35.72;98333.72;5049744;28;20060;-51